Terminal Aerodrome Forecast
Issued by NWS Wakefield, VA

Home | Current Version | Previous Version | Text Only | Print | Product List | Glossary On
Versions: 1 2 3 4 5 6 7 8 9 10 11 12 13 14 15 16 17 18 19 20 21 22 23 24 25 26 27 28
362
FTUS41 KAKQ 250536
TAFORF
TAF
KORF 250536Z 2506/2606 10009KT P6SM -RA OVC004
     FM251000 16011KT P6SM VCSH OVC006
     FM251200 20011KT P6SM BKN008
     FM251300 20012KT P6SM BKN020
     FM251500 21013G20KT P6SM BKN035
     FM260000 23013G20KT P6SM SCT120
     FM260300 24013G20KT P6SM BKN070=

USA.gov is the U.S. government's official web portal to all federal, state and local government web resources and services.